Detall de PIREP

Printer-friendly versionPDF version

[2009/02/07 21:54:00]
Flight IATA:CT2101
Pilot Number:041
Company ICAO:CAT
Aircraft Type:AT72/F
PAX:54
Departing Airport: LEAS
Destination Airport: LEVC
Alternate Airport:LEAL
Online: VATSIM
Route:RATPO1A R107 MERCE R107 VEDER R107 ZMR A33 DISKO A33 INDEG A33 MAGIN A33 HORTA A33 CJN A33 PRADO A33 CENTA1C
Flight Level:FL190
No Slew and time accel
No pause
Crash detect
Detect pilot in Cockpit between each 30 and 45 minutes
21:54 Zero fuel Weight: 40861 Lbs, Fuel Weight: 4210 Lbs
21:54 VATSIM:LEAS 072130Z 22007KT 9999 -SHRA SCT018TCU BKN023 05/03 Q1012 TEMPO 4000 SHRA
21:54 VATSIM:LEVC 072130Z 29018KT CAVOK 08/M05 Q1005 NOSIG
21:55 VOICE CATALONIAN
21:57 Parking Brakes off
22:03 Take-off
22:03 Take off Weight: 44993 Lbs
22:03 Wind: 225º @ 006 Knots Heading: 286º
22:03 POS N43º 33´ 50´´ W006º 02´ 09´´
22:03 Flaps:1 at 131 Knots
22:03 Gear Up: 133 Knots
22:04 Flaps:0
at 139 Knots
22:18 Wind:338º@051 Knots Heading: 175º Ground Speed: 288 Knots Altitude 14343 ft
22:24 TOC
22:24 Fuel Weight: 3454 Lb
22:30 TOD
22:30 Fuel Weight: 3295 Lb
22:33 Wind:349º@072 Knots Heading: 096º Ground Speed: 311 Knots Altitude 17910 ft
22:48 Wind:351º@074 Knots Heading: 104º Ground Speed: 312 Knots Altitude 17883 ft
23:03 Wind:353º@079 Knots Heading: 106º Ground Speed: 321 Knots Altitude 17867 ft
23:18 Wind:322º@027 Knots Heading: 148º Ground Speed: 288 Knots Altitude 5288 ft
23:32 Flaps:1 at 205 Knots
23:33 Wind:290º@013 Knots Heading: 295º Ground Speed: 192 Knots Altitude 2276 ft
23:33 Gear Down: 187 Knots
23:35 Flaps:2 at 138 Knots
23:35 TouchDown:Rate -287 ft/min Speed: 100 Knots
23:36 Flaps:0 at 81 Knots
23:36 VATSIM:LEVC 072300Z 30016KT CAVOK 08/M04 Q1006 NOSIG
23:36 Land
23:36 Wind:293º@013 Knots
23:36 Heading: 300º
23:36 Flight Durat
ion: 01:33
23:36 Landing Weight: 42552 Lbs
23:36 POS N39º 29´ 14´´ W000º 28´ 35´´
23:39 Parking brakes on
23:39 Block to Block Duration: 01:42
23:39 Final Fuel: 1664 Lbls
23:39 Spent Fuel: 2546 Lbls
23:39 Flight Length: 445 NM
23:39 TOD Land Length: 317 NM

Exportar CSV

Powered by Drupal - Modified by Danger4k